createdAt,value
2023-04-11T00:02:25.402Z,1.50
2023-04-11T00:04:55.027Z,1.97
2023-04-11T00:07:21.860Z,9.70
2023-04-11T00:09:51.314Z,2.83
2023-04-11T00:12:18.207Z,1.70
2023-04-11T00:14:48.862Z,2.07
2023-04-11T00:17:18.051Z,5.03
2023-04-11T00:19:47.250Z,1.70
2023-04-11T00:22:17.662Z,1.73
2023-04-11T00:24:45.298Z,6.20
2023-04-11T00:27:11.956Z,2.50
2023-04-11T00:29:38.770Z,2.67
2023-04-11T00:32:05.786Z,2.90
2023-04-11T00:34:34.079Z,5.00
2023-04-11T00:37:01.622Z,7.33
2023-04-11T00:39:35.203Z,3.25
2023-04-11T00:42:07.082Z,3.13
2023-04-11T00:44:35.169Z,5.97
2023-04-11T00:47:03.752Z,2.40
2023-04-11T00:49:31.949Z,2.50
2023-04-11T00:52:00.426Z,2.17
2023-04-11T00:54:30.126Z,2.17
2023-04-11T00:57:03.546Z,2.20
2023-04-11T00:59:34.108Z,3.25
2023-04-11T01:02:03.341Z,4.07
2023-04-11T01:04:32.876Z,2.53
2023-04-11T01:07:06.158Z,1.70
2023-04-11T01:09:34.740Z,1.57
2023-04-11T01:12:05.604Z,3.57
2023-04-11T01:14:32.334Z,1.60
2023-04-11T01:17:02.320Z,1.40
2023-04-11T01:19:30.383Z,2.10
2023-04-11T01:22:01.685Z,2.87
2023-04-11T01:24:28.540Z,1.40
2023-04-11T01:26:57.986Z,2.40
2023-04-11T01:29:24.721Z,4.30
2023-04-11T01:31:53.854Z,2.63
2023-04-11T01:34:21.367Z,1.27
2023-04-11T01:36:48.334Z,5.53
2023-04-11T01:39:19.664Z,1.50
2023-04-11T01:41:47.822Z,1.13
2023-04-11T01:44:15.680Z,2.10
2023-04-11T01:46:45.770Z,1.47
2023-04-11T01:49:15.483Z,2.57
2023-04-11T01:51:47.570Z,2.07
2023-04-11T01:54:14.232Z,1.10
2023-04-11T01:56:41.022Z,1.33
2023-04-11T01:59:09.784Z,3.07
2023-04-11T02:01:38.893Z,1.95
2023-04-11T02:04:05.889Z,1.83
2023-04-11T02:06:38.544Z,2.17
2023-04-11T02:09:05.398Z,2.60
2023-04-11T02:11:32.335Z,7.30
2023-04-11T02:14:00.565Z,1.73
2023-04-11T02:16:29.968Z,3.22
2023-04-11T02:18:57.412Z,1.87
2023-04-11T02:21:24.293Z,1.23
2023-04-11T02:23:51.152Z,2.13
2023-04-11T02:26:20.133Z,0.80
2023-04-11T02:28:46.944Z,1.20
2023-04-11T02:31:15.989Z,1.17
2023-04-11T02:33:42.746Z,2.75
2023-04-11T02:36:09.552Z,0.73
2023-04-11T02:38:38.600Z,1.73
2023-04-11T02:41:06.055Z,0.70
2023-04-11T02:43:32.710Z,0.67
2023-04-11T02:46:12.793Z,1.13
2023-04-11T02:48:39.973Z,0.60
2023-04-11T02:51:06.861Z,2.20
2023-04-11T02:53:33.503Z,2.77
2023-04-11T02:56:00.580Z,0.70
2023-04-11T02:58:28.839Z,1.87
2023-04-11T03:00:56.244Z,1.17
2023-04-11T03:03:23.222Z,1.17
2023-04-11T03:05:52.360Z,1.65
2023-04-11T03:08:19.099Z,0.63
2023-04-11T03:10:45.956Z,1.07
2023-04-11T03:13:12.717Z,0.43
2023-04-11T03:15:39.457Z,1.00
2023-04-11T03:18:06.183Z,2.40
2023-04-11T03:20:33.229Z,4.82
2023-04-11T03:22:59.896Z,1.13
2023-04-11T03:25:28.186Z,3.73
2023-04-11T03:27:59.991Z,0.90
2023-04-11T03:30:26.624Z,1.00
2023-04-11T03:32:54.629Z,1.07
2023-04-11T03:35:21.461Z,1.27
2023-04-11T03:37:48.179Z,0.70
2023-04-11T03:40:18.520Z,0.30
2023-04-11T03:42:48.739Z,1.43
2023-04-11T03:45:17.686Z,0.77
2023-04-11T03:47:46.773Z,2.80
2023-04-11T03:50:13.571Z,0.23
2023-04-11T03:52:40.273Z,1.30
2023-04-11T03:55:07.279Z,0.70
2023-04-11T03:57:36.408Z,0.73
2023-04-11T04:00:08.438Z,0.73
2023-04-11T04:02:36.195Z,2.43
2023-04-11T04:05:03.061Z,3.20
2023-04-11T04:07:29.802Z,2.37
2023-04-11T04:09:56.535Z,1.37
2023-04-11T04:12:28.219Z,2.03
2023-04-11T04:14:57.857Z,0.50
2023-04-11T04:17:24.597Z,0.40
2023-04-11T04:19:51.768Z,0.90
2023-04-11T04:22:18.660Z,0.30
2023-04-11T04:24:48.181Z,0.93
2023-04-11T04:27:18.077Z,0.20
2023-04-11T04:29:47.404Z,0.97
2023-04-11T04:32:22.524Z,1.43
2023-04-11T04:34:54.893Z,0.77
2023-04-11T04:37:25.903Z,1.80
2023-04-11T04:39:57.325Z,0.37
2023-04-11T04:42:26.573Z,0.63
2023-04-11T04:44:54.810Z,1.30
2023-04-11T04:47:29.486Z,2.70
2023-04-11T04:49:56.781Z,1.43
2023-04-11T04:52:28.495Z,0.97
2023-04-11T04:54:58.214Z,0.97
2023-04-11T04:57:29.421Z,2.00
2023-04-11T04:59:57.036Z,0.75
2023-04-11T05:02:25.444Z,3.00
2023-04-11T05:04:54.133Z,0.90
2023-04-11T05:07:21.131Z,0.60
2023-04-11T05:09:50.024Z,0.30
2023-04-11T05:12:16.991Z,0.10
2023-04-11T05:14:43.766Z,2.50
2023-04-11T05:17:12.912Z,0.68
2023-04-11T05:19:39.575Z,0.80
2023-04-11T05:22:08.639Z,1.07
2023-04-11T05:24:35.281Z,3.80
2023-04-11T05:27:04.343Z,1.27
2023-04-11T05:29:31.240Z,8.40
2023-04-11T05:31:57.956Z,3.77
2023-04-11T05:34:34.761Z,1.00
2023-04-11T05:37:03.838Z,1.00
2023-04-11T05:39:32.844Z,2.40
2023-04-11T05:41:59.644Z,1.07
2023-04-11T05:44:26.327Z,1.90
2023-04-11T05:46:53.009Z,3.20
2023-04-11T05:49:22.133Z,2.27
2023-04-11T05:51:48.822Z,1.75
2023-04-11T05:54:34.884Z,5.20
2023-04-11T05:57:04.487Z,2.43
2023-04-11T05:59:32.461Z,12.00
2023-04-11T06:02:01.846Z,11.90
2023-04-11T06:04:31.254Z,26.63
2023-04-11T06:06:58.320Z,19.90
2023-04-11T06:09:25.003Z,11.77
2023-04-11T06:11:51.668Z,16.37
2023-04-11T06:14:18.461Z,12.33
2023-04-11T06:16:47.330Z,18.30
2023-04-11T06:19:14.045Z,11.60
2023-04-11T06:21:40.740Z,9.20
2023-04-11T06:24:12.954Z,6.72
2023-04-11T06:26:39.618Z,6.10
2023-04-11T06:29:07.179Z,10.57
2023-04-11T06:31:34.146Z,4.93
2023-04-11T06:34:01.625Z,9.73
2023-04-11T06:36:29.740Z,9.57
2023-04-11T06:38:56.844Z,8.73
2023-04-11T06:41:26.384Z,13.38
2023-04-11T06:43:53.046Z,9.17
2023-04-11T06:46:24.093Z,10.00
2023-04-11T06:48:52.978Z,9.63
2023-04-11T06:51:19.622Z,8.77
2023-04-11T06:53:46.339Z,6.67
2023-04-11T06:56:15.299Z,8.70
2023-04-11T06:58:42.080Z,7.82
2023-04-11T07:01:08.869Z,3.43
2023-04-11T07:03:38.499Z,7.07
2023-04-11T07:06:05.674Z,4.80
2023-04-11T07:08:34.785Z,4.67
2023-04-11T07:11:03.700Z,5.53
2023-04-11T07:13:32.690Z,3.73
2023-04-11T07:16:01.740Z,5.80
2023-04-11T07:18:29.881Z,7.03
2023-04-11T07:20:56.759Z,10.27
2023-04-11T07:23:26.006Z,5.87
2023-04-11T07:25:54.396Z,2.37
2023-04-11T07:28:21.375Z,5.57
2023-04-11T07:30:48.106Z,9.50
2023-04-11T07:33:14.790Z,10.60
2023-04-11T07:35:43.971Z,11.73
2023-04-11T07:38:29.637Z,11.03
2023-04-11T07:40:57.247Z,7.90
2023-04-11T07:43:25.750Z,14.23
2023-04-11T07:45:53.487Z,9.93
2023-04-11T07:48:27.923Z,18.83
2023-04-11T07:50:55.332Z,19.90
2023-04-11T07:53:27.692Z,18.13
2023-04-11T07:55:54.593Z,11.97
2023-04-11T07:58:26.027Z,9.87
2023-04-11T08:00:53.525Z,4.57
2023-04-11T08:03:20.949Z,4.97
2023-04-11T08:05:52.438Z,9.20
2023-04-11T08:08:19.180Z,6.60
2023-04-11T08:10:49.484Z,5.40
2023-04-11T08:13:17.417Z,8.57
2023-04-11T08:15:44.061Z,6.97
2023-04-11T08:18:13.781Z,7.47
2023-04-11T08:20:42.881Z,6.70
2023-04-11T08:23:11.779Z,5.90
2023-04-11T08:25:39.172Z,6.23
2023-04-11T08:28:06.562Z,7.07
2023-04-11T08:30:35.645Z,5.93
2023-04-11T08:33:04.682Z,10.23
2023-04-11T08:35:31.436Z,7.40
2023-04-11T08:38:00.433Z,9.40
2023-04-11T08:40:28.283Z,7.97
2023-04-11T08:43:10.377Z,9.87
2023-04-11T08:45:39.441Z,7.53
2023-04-11T08:48:07.157Z,4.33
2023-04-11T08:50:37.118Z,4.07
2023-04-11T08:53:08.223Z,7.63
2023-04-11T08:55:34.924Z,6.70
2023-04-11T08:58:02.865Z,5.13
2023-04-11T09:00:32.279Z,5.47
2023-04-11T09:03:06.386Z,11.80
2023-04-11T09:05:34.145Z,4.73
2023-04-11T09:08:06.279Z,4.03
2023-04-11T09:10:33.198Z,5.40
2023-04-11T09:13:13.285Z,10.63
2023-04-11T09:15:44.366Z,8.43
2023-04-11T09:18:33.221Z,6.73
2023-04-11T09:21:04.097Z,9.13
2023-04-11T09:23:33.907Z,8.35
2023-04-11T09:26:03.090Z,8.37
2023-04-11T09:28:45.264Z,7.67
2023-04-11T09:31:13.239Z,10.97
2023-04-11T09:33:55.921Z,5.63
2023-04-11T09:36:27.241Z,6.07
2023-04-11T09:38:57.297Z,6.50
2023-04-11T09:41:34.744Z,14.67
2023-04-11T09:44:01.954Z,23.50
2023-04-11T09:46:31.509Z,19.63
2023-04-11T09:49:01.815Z,16.93
2023-04-11T09:51:36.533Z,10.13
2023-04-11T09:54:06.648Z,7.90
2023-04-11T09:56:36.348Z,9.30
2023-04-11T09:59:08.339Z,15.10
2023-04-11T10:01:38.743Z,12.37
2023-04-11T10:04:05.495Z,15.67
2023-04-11T10:06:39.185Z,11.73
2023-04-11T10:09:11.045Z,8.50
2023-04-11T10:11:41.888Z,7.97
2023-04-11T10:14:08.560Z,6.03
2023-04-11T10:16:35.397Z,5.60
2023-04-11T10:19:04.276Z,13.57
2023-04-11T10:21:33.747Z,17.03
2023-04-11T10:24:17.357Z,21.07
2023-04-11T10:27:03.601Z,31.40
2023-04-11T10:29:30.259Z,32.33
2023-04-11T10:32:15.544Z,25.50
2023-04-11T10:34:54.519Z,27.20
2023-04-11T10:37:50.400Z,26.93
2023-04-11T10:40:20.348Z,40.53
2023-04-11T10:42:49.899Z,20.57
2023-04-11T10:45:19.467Z,21.08
2023-04-11T10:48:10.288Z,25.93
2023-04-11T10:50:41.122Z,20.43
2023-04-11T10:53:11.061Z,15.53
2023-04-11T10:55:48.251Z,18.00
2023-04-11T10:58:22.131Z,20.27
2023-04-11T11:00:49.619Z,14.90
2023-04-11T11:03:16.520Z,14.53
2023-04-11T11:05:43.663Z,19.03
2023-04-11T11:08:10.702Z,10.00
2023-04-11T11:10:40.434Z,13.73
2023-04-11T11:13:07.413Z,9.03
2023-04-11T11:15:37.974Z,8.10
2023-04-11T11:18:10.802Z,6.53
2023-04-11T11:20:38.104Z,9.83
2023-04-11T11:23:07.056Z,8.63
2023-04-11T11:25:38.728Z,5.70
2023-04-11T11:28:12.090Z,7.53
2023-04-11T11:30:39.577Z,11.80
2023-04-11T11:33:29.378Z,5.93
2023-04-11T11:36:03.622Z,7.77
2023-04-11T11:38:31.061Z,8.73
2023-04-11T11:40:58.851Z,4.20
2023-04-11T11:43:29.321Z,3.73
2023-04-11T11:46:09.176Z,3.53
2023-04-11T11:48:38.666Z,2.63
2023-04-11T11:51:06.328Z,2.53
2023-04-11T11:53:33.273Z,3.37
2023-04-11T11:56:00.128Z,2.60
2023-04-11T11:58:27.338Z,2.43
2023-04-11T12:00:56.263Z,2.73
2023-04-11T12:03:24.760Z,4.43
2023-04-11T12:05:55.165Z,1.63
2023-04-11T12:08:24.309Z,3.27
2023-04-11T12:10:51.547Z,3.17
2023-04-11T12:13:27.107Z,3.23
2023-04-11T12:16:00.423Z,7.23
2023-04-11T12:18:28.650Z,5.17
2023-04-11T12:20:58.655Z,7.77
2023-04-11T12:23:25.345Z,9.20
2023-04-11T12:25:54.256Z,10.70
2023-04-11T12:28:21.463Z,8.03
2023-04-11T12:30:50.782Z,5.57
2023-04-11T12:33:17.817Z,6.33
2023-04-11T12:35:47.081Z,5.10
2023-04-11T12:38:16.633Z,2.87
2023-04-11T12:40:45.522Z,6.27
2023-04-11T12:43:12.199Z,5.77
2023-04-11T12:45:41.321Z,3.77
2023-04-11T12:48:11.231Z,2.63
2023-04-11T12:50:37.956Z,2.97
2023-04-11T12:53:04.607Z,7.47
2023-04-11T12:55:31.281Z,5.43
2023-04-11T12:57:57.990Z,9.05
2023-04-11T13:00:26.854Z,6.33
2023-04-11T13:02:54.500Z,5.80
2023-04-11T13:05:23.756Z,8.57
2023-04-11T13:07:52.626Z,2.80
2023-04-11T13:10:19.442Z,12.70
2023-04-11T13:12:51.144Z,6.00
2023-04-11T13:15:20.400Z,15.67
2023-04-11T13:17:47.293Z,4.67
2023-04-11T13:20:14.345Z,10.27
2023-04-11T13:22:43.701Z,8.05
2023-04-11T13:25:15.993Z,9.17
2023-04-11T13:27:42.792Z,8.23
2023-04-11T13:30:10.550Z,7.93
2023-04-11T13:32:37.403Z,5.75
2023-04-11T13:35:04.383Z,8.40
2023-04-11T13:37:35.462Z,15.67
2023-04-11T13:40:08.281Z,8.83
2023-04-11T13:42:37.342Z,9.63
2023-04-11T13:45:04.546Z,5.80
2023-04-11T13:47:31.379Z,5.23
2023-04-11T13:50:00.193Z,6.93
2023-04-11T13:52:27.254Z,5.27
2023-04-11T13:54:53.973Z,7.27
2023-04-11T13:57:21.248Z,27.83
2023-04-11T13:59:47.918Z,21.30
2023-04-11T14:02:16.781Z,21.37
2023-04-11T14:04:43.870Z,14.57
2023-04-11T14:07:10.800Z,8.67
2023-04-11T14:09:37.442Z,10.87
2023-04-11T14:12:04.223Z,10.17
2023-04-11T14:14:33.411Z,15.37
2023-04-11T14:17:02.326Z,21.93
2023-04-11T14:19:31.513Z,25.10
2023-04-11T14:21:58.270Z,12.00
2023-04-11T14:24:25.106Z,6.63
2023-04-11T14:26:51.887Z,18.77
2023-04-11T14:29:19.873Z,18.17
2023-04-11T14:31:47.800Z,12.87
2023-04-11T14:34:14.608Z,5.37
2023-04-11T14:36:43.625Z,15.67
2023-04-11T14:39:10.403Z,23.30
2023-04-11T14:41:37.129Z,25.73
2023-04-11T14:44:06.445Z,10.70
2023-04-11T14:46:34.415Z,17.40
2023-04-11T14:49:06.329Z,33.37
2023-04-11T14:51:33.016Z,33.70
2023-04-11T14:53:59.945Z,27.73
2023-04-11T14:56:29.325Z,26.27
2023-04-11T14:58:56.096Z,23.60
2023-04-11T15:01:23.096Z,15.97
2023-04-11T15:03:49.991Z,25.67
2023-04-11T15:06:19.367Z,25.37
2023-04-11T15:08:46.385Z,15.33
2023-04-11T15:11:13.034Z,16.30
2023-04-11T15:13:42.358Z,10.10
2023-04-11T15:16:09.090Z,23.37
2023-04-11T15:18:38.020Z,16.73
2023-04-11T15:21:04.978Z,7.53
2023-04-11T15:23:31.752Z,12.50
2023-04-11T15:26:02.579Z,5.67
2023-04-11T15:28:36.615Z,13.10
2023-04-11T15:31:10.046Z,12.50
2023-04-11T15:33:39.797Z,16.10
2023-04-11T15:36:09.110Z,6.23
2023-04-11T15:38:38.439Z,5.10
2023-04-11T15:41:05.711Z,8.87
2023-04-11T15:43:33.126Z,10.83
2023-04-11T15:46:02.095Z,10.30
2023-04-11T15:48:31.365Z,8.13
2023-04-11T15:51:10.278Z,5.50
2023-04-11T15:53:39.232Z,9.93
2023-04-11T15:56:09.874Z,6.23
2023-04-11T15:58:36.715Z,5.90
2023-04-11T16:01:05.640Z,5.53
2023-04-11T16:03:32.940Z,7.40
2023-04-11T16:06:01.162Z,3.23
2023-04-11T16:08:27.919Z,5.80
2023-04-11T16:10:57.668Z,3.60
2023-04-11T16:13:31.506Z,2.43
2023-04-11T16:16:00.610Z,2.90
2023-04-11T16:18:29.944Z,3.67
2023-04-11T16:20:56.635Z,3.90
2023-04-11T16:23:25.778Z,5.10
2023-04-11T16:25:57.317Z,3.63
2023-04-11T16:28:26.640Z,6.70
2023-04-11T16:30:53.388Z,3.60
2023-04-11T16:33:20.066Z,5.53
2023-04-11T16:35:46.790Z,3.43
2023-04-11T16:38:13.630Z,7.20
2023-04-11T16:40:40.354Z,4.57
2023-04-11T16:43:07.108Z,9.93
2023-04-11T16:45:33.820Z,12.30
2023-04-11T16:48:00.753Z,37.17
2023-04-11T16:50:32.229Z,28.45
2023-04-11T16:53:01.380Z,39.83
2023-04-11T16:55:28.000Z,26.60
2023-04-11T16:57:57.174Z,22.97
2023-04-11T17:00:24.536Z,28.63
2023-04-11T17:02:51.682Z,28.17
2023-04-11T17:05:20.925Z,27.13
2023-04-11T17:07:50.000Z,15.80
2023-04-11T17:10:19.042Z,15.17
2023-04-11T17:12:47.899Z,11.07
2023-04-11T17:15:16.759Z,11.93
2023-04-11T17:17:45.651Z,15.30
2023-04-11T17:20:15.017Z,13.70
2023-04-11T17:22:43.414Z,6.33
2023-04-11T17:25:10.309Z,7.70
2023-04-11T17:27:37.153Z,5.10
2023-04-11T17:30:09.503Z,5.90
2023-04-11T17:32:39.465Z,10.10
2023-04-11T17:35:09.016Z,13.33
2023-04-11T17:37:39.605Z,7.77
2023-04-11T17:40:11.975Z,7.93
2023-04-11T17:42:41.498Z,17.63
2023-04-11T17:45:18.088Z,9.87
2023-04-11T17:47:47.889Z,5.40
2023-04-11T17:50:17.365Z,5.82
2023-04-11T17:52:45.241Z,8.20
2023-04-11T17:55:16.315Z,6.23
2023-04-11T17:57:49.047Z,8.63
2023-04-11T18:00:20.107Z,6.70
2023-04-11T18:02:52.518Z,12.97
2023-04-11T18:05:24.277Z,11.30
2023-04-11T18:07:57.348Z,7.17
2023-04-11T18:10:28.179Z,9.85
2023-04-11T18:12:58.553Z,5.17
2023-04-11T18:15:26.476Z,6.67
2023-04-11T18:17:53.590Z,13.23
2023-04-11T18:20:23.104Z,6.82
2023-04-11T18:22:51.709Z,3.83
2023-04-11T18:25:21.545Z,7.77
2023-04-11T18:27:51.000Z,9.03
2023-04-11T18:30:18.009Z,12.13
2023-04-11T18:32:50.257Z,1.93
2023-04-11T18:35:18.635Z,2.73
2023-04-11T18:37:48.198Z,4.50
2023-04-11T18:40:18.264Z,2.17
2023-04-11T18:42:48.050Z,4.10
2023-04-11T18:45:21.201Z,2.70
2023-04-11T18:47:48.089Z,3.03
2023-04-11T18:50:15.646Z,3.60
2023-04-11T18:52:47.711Z,2.20
2023-04-11T18:55:22.533Z,2.70
2023-04-11T18:57:52.114Z,5.27
2023-04-11T19:00:20.355Z,1.97
2023-04-11T19:02:50.889Z,5.30
2023-04-11T19:05:20.635Z,5.13
2023-04-11T19:07:49.580Z,3.08
2023-04-11T19:10:18.833Z,3.87
2023-04-11T19:12:50.039Z,1.57
2023-04-11T19:15:16.808Z,1.83
2023-04-11T19:17:46.315Z,3.70
2023-04-11T19:20:13.562Z,5.07
2023-04-11T19:22:41.049Z,2.57
2023-04-11T19:25:14.689Z,2.43
2023-04-11T19:27:44.298Z,1.53
2023-04-11T19:30:13.522Z,2.07
2023-04-11T19:32:43.209Z,2.10
2023-04-11T19:35:10.956Z,1.90
2023-04-11T19:37:38.169Z,1.43
2023-04-11T19:40:24.376Z,1.90
2023-04-11T19:42:51.682Z,1.93
2023-04-11T19:45:18.699Z,2.00
2023-04-11T19:47:45.452Z,2.57
2023-04-11T19:50:13.320Z,4.10
2023-04-11T19:52:41.314Z,2.00
2023-04-11T19:55:09.444Z,2.40
2023-04-11T19:57:40.234Z,5.70
2023-04-11T20:00:12.826Z,1.93
2023-04-11T20:02:47.304Z,2.10
2023-04-11T20:05:16.265Z,2.47
2023-04-11T20:07:43.997Z,3.00
2023-04-11T20:10:17.740Z,2.80
2023-04-11T20:12:47.105Z,1.87
2023-04-11T20:15:14.734Z,2.30
2023-04-11T20:17:46.080Z,3.40
2023-04-11T20:20:15.631Z,4.27
2023-04-11T20:22:44.764Z,2.47
2023-04-11T20:25:11.944Z,1.90
2023-04-11T20:27:39.381Z,1.57
2023-04-11T20:30:08.708Z,1.87
2023-04-11T20:32:35.608Z,2.70
2023-04-11T20:35:02.559Z,2.23
2023-04-11T20:37:34.284Z,3.20
2023-04-11T20:40:08.009Z,1.83
2023-04-11T20:42:42.376Z,3.30
2023-04-11T20:45:11.464Z,2.23
2023-04-11T20:47:38.958Z,2.50
2023-04-11T20:50:07.509Z,3.47
2023-04-11T20:52:34.708Z,2.37
2023-04-11T20:55:02.502Z,2.67
2023-04-11T20:57:35.548Z,2.87
2023-04-11T21:00:16.878Z,3.27
2023-04-11T21:02:45.955Z,4.03
2023-04-11T21:05:13.952Z,2.93
2023-04-11T21:07:41.985Z,3.20
2023-04-11T21:10:12.182Z,2.40
2023-04-11T21:12:39.415Z,3.13
2023-04-11T21:15:11.764Z,3.33
2023-04-11T21:17:43.872Z,3.47
2023-04-11T21:20:18.118Z,3.07
2023-04-11T21:22:49.665Z,3.17
2023-04-11T21:25:16.715Z,2.00
2023-04-11T21:27:43.517Z,3.15
2023-04-11T21:30:10.920Z,2.30
2023-04-11T21:32:38.205Z,3.23
2023-04-11T21:35:10.434Z,2.90
2023-04-11T21:37:37.268Z,2.63
2023-04-11T21:40:04.463Z,4.00
2023-04-11T21:42:31.443Z,2.23
2023-04-11T21:45:00.423Z,2.50
2023-04-11T21:47:29.567Z,2.73
2023-04-11T21:49:58.467Z,2.37
2023-04-11T21:52:27.744Z,2.37
2023-04-11T21:54:56.666Z,2.63
2023-04-11T21:57:23.358Z,2.13
2023-04-11T21:59:50.052Z,2.50
2023-04-11T22:02:16.883Z,3.53
2023-04-11T22:05:00.934Z,2.30
2023-04-11T22:07:46.190Z,2.13
2023-04-11T22:10:13.159Z,2.43
2023-04-11T22:12:42.076Z,1.33
2023-04-11T22:15:12.663Z,2.07
2023-04-11T22:17:42.250Z,1.57
2023-04-11T22:20:11.960Z,2.37
2023-04-11T22:22:38.764Z,2.77
2023-04-11T22:25:06.875Z,7.07
2023-04-11T22:27:34.552Z,1.77
2023-04-11T22:30:02.385Z,2.90
2023-04-11T22:32:30.221Z,2.27
2023-04-11T22:34:56.954Z,3.70
2023-04-11T22:37:26.243Z,3.67
2023-04-11T22:39:53.024Z,2.27
2023-04-11T22:42:19.976Z,3.20
2023-04-11T22:44:46.663Z,2.03
2023-04-11T22:47:16.465Z,1.90
2023-04-11T22:49:48.560Z,3.93
2023-04-11T22:52:15.474Z,3.60
2023-04-11T22:54:42.646Z,4.50
2023-04-11T22:57:12.027Z,7.03
2023-04-11T22:59:38.681Z,2.27
2023-04-11T23:02:05.495Z,2.13
2023-04-11T23:04:32.624Z,2.13
2023-04-11T23:07:01.836Z,4.80
2023-04-11T23:09:28.476Z,3.43
2023-04-11T23:11:55.197Z,2.43
2023-04-11T23:14:30.917Z,2.73
2023-04-11T23:16:57.768Z,1.93
2023-04-11T23:19:24.514Z,2.47
2023-04-11T23:21:51.185Z,4.00
2023-04-11T23:24:17.938Z,2.90
2023-04-11T23:26:44.634Z,1.77
2023-04-11T23:29:11.351Z,2.27
2023-04-11T23:31:40.503Z,2.77
2023-04-11T23:34:07.149Z,2.90
2023-04-11T23:36:34.465Z,3.10
2023-04-11T23:39:01.925Z,2.53
2023-04-11T23:41:30.170Z,3.28
2023-04-11T23:43:57.567Z,3.53
2023-04-11T23:46:24.650Z,2.67
2023-04-11T23:48:52.767Z,2.83
2023-04-11T23:51:24.437Z,3.60
2023-04-11T23:53:51.056Z,2.67
2023-04-11T23:56:20.522Z,2.47
2023-04-11T23:58:49.737Z,3.30
